Latest Weather Observations for Sellicks Hill

IDS60801

Issued at 6:01 pm CST Thursday 3 September 2015 (issued every 30 minutes, with the page automatically refreshed every 10 minutes)

About weather observations | Map of weather stations | Latest weather observations for SA | Other Formats
Station Details ID: 023886 Name: MOUNT TERRIBLE RADAR Lat: -35.33 Lon: 138.50 Height: 385.7 m
Data from the previous 72 hours. | See also: Recent months for locations in South Australia
Date/Time
CST
Temp
°C
App
Temp
°C
Dew
Point
Rel
Hum
%
Delta-T
°C
Wind Press
QNH
hPa
Press
MSL
hPa
Rain
since 9 am
mm
Dir
 
Spd
km/h
Gust
km/h
Spd
kts
Gust
kts
03/06:00pm - - - - - S 19 24 10 13 - - -
03/05:30pm - - - - - S 19 24 10 13 - - -
03/05:00pm - - - - - S 19 24 10 13 - - -
03/04:30pm - - - - - S 20 26 11 14 - - -
03/04:00pm - - - - - S 28 37 15 20 - - -
03/03:30pm - - - - - S 20 32 11 17 - - -
03/03:00pm - - - - - S 26 35 14 19 - - -
03/02:30pm - - - - - S 20 30 11 16 - - -
03/02:00pm - - - - - S 20 35 11 19 - - -
03/01:30pm - - - - - S 19 30 10 16 - - -
03/01:00pm - - - - - S 24 33 13 18 - - -
03/12:30pm - - - - - S 26 35 14 19 - - -
03/12:00pm - - - - - S 26 46 14 25 - - -
03/11:30am - - - - - S 28 37 15 20 - - -
03/11:00am - - - - - S 35 46 19 25 - - -
03/10:30am - - - - - S 35 44 19 24 - - -
03/10:00am - - - - - S 32 41 17 22 - - -
03/09:30am - - - - - S 37 48 20 26 - - -
03/09:00am - - - - - S 32 39 17 21 - - -
03/08:30am - - - - - S 32 44 17 24 - - -
03/08:00am - - - - - S 33 50 18 27 - - -
03/07:30am - - - - - S 39 57 21 31 - - -
03/07:00am - - - - - S 41 59 22 32 - - -
03/06:45am - - - - - S 33 56 18 30 - - -
03/06:30am - - - - - S 26 41 14 22 - - -
03/06:00am - - - - - S 24 41 13 22 - - -
03/05:30am - - - - - S 20 33 11 18 - - -
03/05:00am - - - - - S 17 32 9 17 - - -
03/04:30am - - - - - SSW 13 26 7 14 - - -
03/04:00am - - - - - SSW 9 15 5 8 - - -
03/03:30am - - - - - SSW 9 19 5 10 - - -
03/03:00am - - - - - SSW 11 19 6 10 - - -
03/02:30am - - - - - S 19 26 10 14 - - -
03/02:00am - - - - - S 11 19 6 10 - - -
03/01:30am - - - - - SSW 11 17 6 9 - - -
03/01:00am - - - - - SSW 11 17 6 9 - - -
03/12:30am - - - - - SSW 11 20 6 11 - - -
03/12:00am - - - - - SSW 13 19 7 10 - - -
 
Date/Time
CST
Temp
°C
App
Temp
°C
Dew
Point
Rel
Hum
%
Delta-T
°C
Wind Press
QNH
hPa
Press
MSL
hPa
Rain
since 9 am
mm
Dir
 
Spd
km/h
Gust
km/h
Spd
kts
Gust
kts
02/11:30pm - - - - - S 35 43 19 23 - - -
02/11:00pm - - - - - SSE 43 50 23 27 - - -
02/10:30pm - - - - - S 41 54 22 29 - - -
02/10:00pm - - - - - S 32 44 17 24 - - -
02/09:30pm - - - - - S 30 39 16 21 - - -
02/09:00pm - - - - - S 33 43 18 23 - - -
02/08:30pm - - - - - SSE 33 39 18 21 - - -
02/08:00pm - - - - - SSE 35 43 19 23 - - -
02/07:30pm - - - - - SSE 43 50 23 27 - - -
02/07:00pm - - - - - SSE 37 46 20 25 - - -
02/06:30pm - - - - - SSE 35 44 19 24 - - -
02/06:00pm - - - - - SSE 35 43 19 23 - - -
02/05:30pm - - - - - SSE 30 35 16 19 - - -
02/05:00pm - - - - - SE 20 24 11 13 - - -
02/04:30pm - - - - - ESE 9 15 5 8 - - -
02/04:00pm - - - - - NE 6 11 3 6 - - -
02/03:30pm - - - - - N 2 7 1 4 - - -
02/03:00pm - - - - - NNW 9 17 5 9 - - -
02/02:30pm - - - - - N 15 26 8 14 - - -
02/02:00pm - - - - - N 15 26 8 14 - - -
02/01:30pm - - - - - NNW 17 28 9 15 - - -
02/01:00pm - - - - - NNW 15 26 8 14 - - -
02/12:30pm - - - - - NNW 15 26 8 14 - - -
02/12:00pm - - - - - NNW 13 24 7 13 - - -
02/11:30am - - - - - NNW 19 35 10 19 - - -
02/11:00am - - - - - NNW 19 32 10 17 - - -
02/10:30am - - - - - N 17 32 9 17 - - -
02/10:00am - - - - - NNW 17 30 9 16 - - -
02/09:30am - - - - - NNW 20 35 11 19 - - -
02/09:00am - - - - - NNW 19 33 10 18 - - -
02/08:30am - - - - - NNW 17 28 9 15 - - -
02/08:00am - - - - - N 15 26 8 14 - - -
02/07:30am - - - - - NNW 19 33 10 18 - - -
02/07:00am - - - - - NNW 19 28 10 15 - - -
02/06:30am - - - - - NNW 19 30 10 16 - - -
02/06:00am - - - - - NNW 17 32 9 17 - - -
02/05:30am - - - - - NNW 19 33 10 18 - - -
02/05:00am - - - - - NNW 17 32 9 17 - - -
02/04:30am - - - - - NNW 17 28 9 15 - - -
02/04:00am - - - - - N 13 20 7 11 - - -
02/03:30am - - - - - N 15 28 8 15 - - -
02/03:00am - - - - - N 13 26 7 14 - - -
02/02:30am - - - - - N 19 32 10 17 - - -
02/02:00am - - - - - N 22 35 12 19 - - -
02/01:30am - - - - - N 19 35 10 19 - - -
02/01:00am - - - - - N 17 32 9 17 - - -
02/12:30am - - - - - N 19 33 10 18 - - -
02/12:00am - - - - - NNW 19 32 10 17 - - -
 
Date/Time
CST
Temp
°C
App
Temp
°C
Dew
Point
Rel
Hum
%
Delta-T
°C
Wind Press
QNH
hPa
Press
MSL
hPa
Rain
since 9 am
mm
Dir
 
Spd
km/h
Gust
km/h
Spd
kts
Gust
kts
01/11:30pm - - - - - N 15 26 8 14 - - -
01/11:00pm - - - - - NNW 28 46 15 25 - - -
01/10:30pm - - - - - NNW 17 28 9 15 - - -
01/10:00pm - - - - - N 13 22 7 12 - - -
01/09:30pm - - - - - N 15 30 8 16 - - -
01/09:00pm - - - - - N 11 19 6 10 - - -
01/08:30pm - - - - - NNE 9 20 5 11 - - -
01/08:00pm - - - - - NNE 11 20 6 11 - - -
01/07:30pm - - - - - NNE 13 24 7 13 - - -
01/07:00pm - - - - - NNE 9 15 5 8 - - -
01/06:30pm - - - - - NNE 11 24 6 13 - - -
01/06:00pm - - - - - NNE 7 17 4 9 - - -
01/05:30pm - - - - - N 9 20 5 11 - - -
01/05:00pm - - - - - N 11 24 6 13 - - -
01/04:30pm - - - - - NNW 13 19 7 10 - - -
01/04:00pm - - - - - NNW 11 20 6 11 - - -
01/03:30pm - - - - - NNW 17 28 9 15 - - -
01/03:00pm - - - - - N 19 37 10 20 - - -
01/02:30pm - - - - - N 17 28 9 15 - - -
01/02:00pm - - - - - NNW 19 32 10 17 - - -
01/01:30pm - - - - - NNW 17 28 9 15 - - -
01/01:00pm - - - - - NNW 13 26 7 14 - - -
01/12:30pm - - - - - N 13 24 7 13 - - -
01/12:00pm - - - - - N 11 22 6 12 - - -
01/11:30am - - - - - N 9 19 5 10 - - -
01/11:00am - - - - - N 9 19 5 10 - - -
01/10:30am - - - - - N 13 26 7 14 - - -
01/10:00am - - - - - NNW 11 17 6 9 - - -
01/09:30am - - - - - N 9 19 5 10 - - -
01/09:00am - - - - - N 7 15 4 8 - - -
01/08:30am - - - - - NNE 4 9 2 5 - - -
01/08:00am - - - - - NNE 6 11 3 6 - - -
01/07:30am - - - - - N 4 7 2 4 - - -
01/07:00am - - - - - NNW 9 15 5 8 - - -
01/06:30am - - - - - NNW 13 20 7 11 - - -
01/06:00am - - - - - NNW 15 20 8 11 - - -
01/05:30am - - - - - NNW 11 17 6 9 - - -
01/05:00am - - - - - N 11 26 6 14 - - -
01/04:30am - - - - - N 9 19 5 10 - - -
01/04:00am - - - - - N 11 28 6 15 - - -
01/03:30am - - - - - N 9 15 5 8 - - -
01/03:00am - - - - - N 7 15 4 8 - - -
01/02:30am - - - - - N 9 17 5 9 - - -
01/02:00am - - - - - N 7 13 4 7 - - -
01/01:30am - - - - - NNE 7 13 4 7 - - -
01/01:00am - - - - - NE 7 15 4 8 - - -
01/12:30am - - - - - NE 7 11 4 6 - - -
01/12:00am - - - - - ENE 9 11 5 6 - - -
 
Date/Time
CST
Temp
°C
App
Temp
°C
Dew
Point
Rel
Hum
%
Delta-T
°C
Wind Press
QNH
hPa
Press
MSL
hPa
Rain
since 9 am
mm
Dir
 
Spd
km/h
Gust
km/h
Spd
kts
Gust
kts
31/11:30pm - - - - - ENE 11 15 6 8 - - -
31/11:00pm - - - - - ENE 15 22 8 12 - - -
31/10:30pm - - - - - E 17 26 9 14 - - -
31/10:00pm - - - - - E 17 24 9 13 - - -
31/09:30pm - - - - - E 15 20 8 11 - - -
31/09:00pm - - - - - E 15 22 8 12 - - -
31/08:30pm - - - - - E 13 22 7 12 - - -
31/08:00pm - - - - - E 9 15 5 8 - - -
31/07:30pm - - - - - E 7 11 4 6 - - -
31/07:00pm - - - - - E 2 6 1 3 - - -
31/06:30pm - - - - - ENE 2 2 1 1 - - -

Other Formats:

Comma delimited format used in spreadsheet applications
http://www.bom.gov.au/fwo/IDS60801/IDS60801.95679.axf

JavaScript Object Notation format (JSON) in row-major order
http://www.bom.gov.au/fwo/IDS60801/IDS60801.95679.json